createdAt,value
2023-03-31T00:00:34.885Z,934.66
2023-03-31T00:01:34.859Z,934.69
2023-03-31T00:02:34.992Z,934.71
2023-03-31T00:03:34.976Z,934.78
2023-03-31T00:04:34.931Z,934.79
2023-03-31T00:05:34.922Z,934.88
2023-03-31T00:06:35.737Z,934.90
2023-03-31T00:07:34.958Z,934.90
2023-03-31T00:08:34.976Z,934.97
2023-03-31T00:09:34.984Z,935.02
2023-03-31T00:10:35.002Z,935.04
2023-03-31T00:11:35.021Z,935.07
2023-03-31T00:12:35.063Z,935.10
2023-03-31T00:13:35.059Z,935.15
2023-03-31T00:14:35.070Z,935.13
2023-03-31T00:15:35.109Z,935.17
2023-03-31T00:16:35.200Z,935.18
2023-03-31T00:17:35.183Z,935.21
2023-03-31T00:18:35.144Z,935.18
2023-03-31T00:19:35.163Z,935.32
2023-03-31T00:20:35.175Z,935.29
2023-03-31T00:21:35.192Z,935.30
2023-03-31T00:22:35.201Z,935.28
2023-03-31T00:23:35.218Z,935.34
2023-03-31T00:24:35.234Z,935.30
2023-03-31T00:25:35.255Z,935.32
2023-03-31T00:26:35.275Z,935.31
2023-03-31T00:27:35.300Z,935.30
2023-03-31T00:28:35.315Z,935.35
2023-03-31T00:29:35.317Z,935.34
2023-03-31T00:30:35.341Z,935.37
2023-03-31T00:31:35.395Z,935.35
2023-03-31T00:32:35.392Z,935.39
2023-03-31T00:33:35.395Z,935.41
2023-03-31T00:34:35.399Z,935.41
2023-03-31T00:35:35.437Z,935.43
2023-03-31T00:36:35.434Z,935.42
2023-03-31T00:37:35.457Z,935.48
2023-03-31T00:38:35.468Z,935.48
2023-03-31T00:39:35.488Z,935.51
2023-03-31T00:40:35.499Z,935.48
2023-03-31T00:41:35.534Z,935.48
2023-03-31T00:42:35.541Z,935.50
2023-03-31T00:43:35.556Z,935.52
2023-03-31T00:44:35.565Z,935.48
2023-03-31T00:45:35.602Z,935.51
2023-03-31T00:46:35.609Z,935.46
2023-03-31T00:47:35.799Z,935.49
2023-03-31T00:48:35.638Z,935.45
2023-03-31T00:49:35.656Z,935.44
2023-03-31T00:50:35.666Z,935.45
2023-03-31T00:51:35.684Z,935.46
2023-03-31T00:52:35.722Z,935.42
2023-03-31T00:53:35.722Z,935.45
2023-03-31T00:54:35.793Z,935.43
2023-03-31T00:55:35.749Z,935.43
2023-03-31T00:56:35.784Z,935.45
2023-03-31T00:57:35.792Z,935.42
2023-03-31T00:58:35.823Z,935.46
2023-03-31T00:59:35.823Z,935.43
2023-03-31T01:00:35.850Z,935.45
2023-03-31T01:01:35.893Z,935.44
2023-03-31T01:02:35.895Z,935.41
2023-03-31T01:03:35.987Z,935.42
2023-03-31T01:04:35.898Z,935.43
2023-03-31T01:05:35.917Z,935.45
2023-03-31T01:06:35.940Z,935.41
2023-03-31T01:07:35.959Z,935.40
2023-03-31T01:08:35.978Z,935.38
2023-03-31T01:09:36.005Z,935.35
2023-03-31T01:10:36.000Z,935.36
2023-03-31T01:11:36.018Z,935.32
2023-03-31T01:12:36.041Z,935.34
2023-03-31T01:13:36.050Z,935.36
2023-03-31T01:14:36.067Z,935.36
2023-03-31T01:15:36.097Z,935.39
2023-03-31T01:16:36.225Z,935.39
2023-03-31T01:17:36.269Z,935.38
2023-03-31T01:18:36.176Z,935.41
2023-03-31T01:19:36.990Z,935.43
2023-03-31T01:20:36.186Z,935.41
2023-03-31T01:21:36.194Z,935.45
2023-03-31T01:22:36.202Z,935.48
2023-03-31T01:23:36.226Z,935.47
2023-03-31T01:24:36.237Z,935.46
2023-03-31T01:25:36.251Z,935.50
2023-03-31T01:26:36.267Z,935.48
2023-03-31T01:27:36.296Z,935.49
2023-03-31T01:28:36.310Z,935.48
2023-03-31T01:29:36.318Z,935.47
2023-03-31T01:30:36.347Z,935.41
2023-03-31T01:31:36.405Z,935.41
2023-03-31T01:32:36.402Z,935.37
2023-03-31T01:33:36.385Z,935.36
2023-03-31T01:34:36.406Z,935.36
2023-03-31T01:35:36.467Z,935.34
2023-03-31T01:36:36.448Z,935.32
2023-03-31T01:37:36.459Z,935.31
2023-03-31T01:38:36.473Z,935.31
2023-03-31T01:39:36.494Z,935.30
2023-03-31T01:40:36.504Z,935.29
2023-03-31T01:41:36.526Z,935.21
2023-03-31T01:42:36.542Z,935.23
2023-03-31T01:43:36.552Z,935.20
2023-03-31T01:44:36.568Z,935.19
2023-03-31T01:45:36.596Z,935.19
2023-03-31T01:46:36.675Z,935.24
2023-03-31T01:47:36.628Z,935.21
2023-03-31T01:48:36.639Z,935.23
2023-03-31T01:49:36.660Z,935.23
2023-03-31T01:50:36.675Z,935.21
2023-03-31T01:51:36.720Z,935.21
2023-03-31T01:52:36.717Z,935.16
2023-03-31T01:53:36.728Z,935.19
2023-03-31T01:54:36.735Z,935.12
2023-03-31T01:55:36.753Z,935.14
2023-03-31T01:56:36.768Z,935.13
2023-03-31T01:57:36.795Z,935.18
2023-03-31T01:58:36.814Z,935.17
2023-03-31T01:59:36.818Z,935.21
2023-03-31T02:00:36.843Z,935.21
2023-03-31T02:01:37.556Z,935.24
2023-03-31T02:02:36.945Z,935.23
2023-03-31T02:03:37.018Z,935.22
2023-03-31T02:04:36.902Z,935.18
2023-03-31T02:05:36.925Z,935.14
2023-03-31T02:06:36.938Z,935.15
2023-03-31T02:07:36.984Z,935.18
2023-03-31T02:08:36.980Z,935.19
2023-03-31T02:09:36.993Z,935.23
2023-03-31T02:10:37.006Z,935.28
2023-03-31T02:11:37.028Z,935.31
2023-03-31T02:12:37.042Z,935.34
2023-03-31T02:13:37.050Z,935.36
2023-03-31T02:14:37.070Z,935.41
2023-03-31T02:15:37.086Z,935.53
2023-03-31T02:16:37.130Z,935.77
2023-03-31T02:17:37.205Z,936.01
2023-03-31T02:18:37.140Z,936.17
2023-03-31T02:19:37.157Z,936.26
2023-03-31T02:20:37.178Z,936.24
2023-03-31T02:21:37.182Z,936.24
2023-03-31T02:22:37.218Z,936.21
2023-03-31T02:23:37.247Z,936.16
2023-03-31T02:24:37.313Z,936.05
2023-03-31T02:25:37.289Z,936.11
2023-03-31T02:26:37.265Z,936.14
2023-03-31T02:27:37.286Z,936.17
2023-03-31T02:28:37.333Z,936.16
2023-03-31T02:29:37.319Z,936.12
2023-03-31T02:30:37.332Z,936.00
2023-03-31T02:31:37.385Z,935.72
2023-03-31T02:32:37.393Z,935.59
2023-03-31T02:33:37.395Z,935.47
2023-03-31T02:34:37.414Z,935.51
2023-03-31T02:35:37.432Z,935.55
2023-03-31T02:36:37.432Z,935.73
2023-03-31T02:37:37.464Z,935.83
2023-03-31T02:38:37.464Z,935.83
2023-03-31T02:39:37.515Z,935.81
2023-03-31T02:40:37.497Z,935.70
2023-03-31T02:41:37.520Z,935.56
2023-03-31T02:42:37.544Z,935.32
2023-03-31T02:43:37.576Z,935.22
2023-03-31T02:44:37.671Z,935.20
2023-03-31T02:45:37.648Z,935.35
2023-03-31T02:46:37.622Z,935.50
2023-03-31T02:47:37.647Z,935.59
2023-03-31T02:48:37.632Z,935.64
2023-03-31T02:49:37.653Z,935.64
2023-03-31T02:50:37.674Z,935.60
2023-03-31T02:51:37.704Z,935.56
2023-03-31T02:52:37.697Z,935.50
2023-03-31T02:53:37.713Z,935.48
2023-03-31T02:54:37.755Z,935.45
2023-03-31T02:55:37.774Z,935.44
2023-03-31T02:56:37.767Z,935.47
2023-03-31T02:57:37.793Z,935.45
2023-03-31T02:58:37.795Z,935.42
2023-03-31T02:59:37.812Z,935.44
2023-03-31T03:00:37.835Z,935.40
2023-03-31T03:01:37.888Z,935.39
2023-03-31T03:02:37.957Z,935.42
2023-03-31T03:03:37.927Z,935.39
2023-03-31T03:04:37.921Z,935.44
2023-03-31T03:05:37.917Z,935.43
2023-03-31T03:06:37.927Z,935.41
2023-03-31T03:07:38.043Z,935.37
2023-03-31T03:08:37.959Z,935.35
2023-03-31T03:09:37.979Z,935.34
2023-03-31T03:10:37.993Z,935.33
2023-03-31T03:11:38.030Z,935.30
2023-03-31T03:12:38.045Z,935.33
2023-03-31T03:13:38.043Z,935.34
2023-03-31T03:14:38.057Z,935.32
2023-03-31T03:15:38.089Z,935.32
2023-03-31T03:16:38.188Z,935.29
2023-03-31T03:17:38.149Z,935.25
2023-03-31T03:18:38.135Z,935.19
2023-03-31T03:19:38.149Z,935.15
2023-03-31T03:20:38.165Z,935.17
2023-03-31T03:21:38.179Z,935.23
2023-03-31T03:22:38.201Z,935.24
2023-03-31T03:23:38.214Z,935.26
2023-03-31T03:24:38.223Z,935.30
2023-03-31T03:25:38.239Z,935.25
2023-03-31T03:26:38.264Z,935.23
2023-03-31T03:27:38.307Z,935.18
2023-03-31T03:28:38.298Z,935.14
2023-03-31T03:29:38.312Z,935.09
2023-03-31T03:30:38.411Z,935.06
2023-03-31T03:31:38.343Z,935.08
2023-03-31T03:32:38.406Z,935.14
2023-03-31T03:33:38.372Z,935.15
2023-03-31T03:34:38.397Z,935.13
2023-03-31T03:35:38.442Z,935.12
2023-03-31T03:36:38.440Z,935.11
2023-03-31T03:37:38.448Z,935.08
2023-03-31T03:38:38.461Z,935.05
2023-03-31T03:39:38.480Z,935.06
2023-03-31T03:40:38.494Z,935.07
2023-03-31T03:41:38.503Z,935.06
2023-03-31T03:42:38.603Z,935.08
2023-03-31T03:43:38.560Z,935.10
2023-03-31T03:44:38.551Z,935.08
2023-03-31T03:45:38.591Z,935.03
2023-03-31T03:46:38.612Z,935.04
2023-03-31T03:47:38.638Z,935.03
2023-03-31T03:48:38.631Z,935.01
2023-03-31T03:49:38.640Z,935.01
2023-03-31T03:50:38.680Z,934.98
2023-03-31T03:51:38.676Z,934.99
2023-03-31T03:52:38.686Z,934.96
2023-03-31T03:53:38.705Z,934.97
2023-03-31T03:54:38.721Z,934.96
2023-03-31T03:55:38.732Z,934.90
2023-03-31T03:56:38.745Z,934.86
2023-03-31T03:57:38.772Z,934.81
2023-03-31T03:58:38.787Z,934.74
2023-03-31T03:59:38.821Z,934.72
2023-03-31T04:00:38.809Z,934.65
2023-03-31T04:01:38.840Z,934.60
2023-03-31T04:02:38.899Z,934.62
2023-03-31T04:03:38.866Z,934.61
2023-03-31T04:04:38.917Z,934.60
2023-03-31T04:05:38.893Z,934.62
2023-03-31T04:06:38.915Z,934.61
2023-03-31T04:07:38.936Z,934.60
2023-03-31T04:08:38.951Z,934.56
2023-03-31T04:09:38.961Z,934.57
2023-03-31T04:10:38.981Z,934.59
2023-03-31T04:11:38.994Z,934.55
2023-03-31T04:12:39.004Z,934.57
2023-03-31T04:13:39.030Z,934.55
2023-03-31T04:14:39.037Z,934.54
2023-03-31T04:15:39.084Z,934.51
2023-03-31T04:16:39.075Z,934.47
2023-03-31T04:17:39.102Z,934.46
2023-03-31T04:18:39.102Z,934.48
2023-03-31T04:19:39.119Z,934.45
2023-03-31T04:20:39.543Z,934.42
2023-03-31T04:21:39.160Z,934.45
2023-03-31T04:22:39.172Z,934.41
2023-03-31T04:23:39.186Z,934.37
2023-03-31T04:24:39.203Z,934.34
2023-03-31T04:25:39.283Z,934.38
2023-03-31T04:26:39.265Z,934.30
2023-03-31T04:27:39.248Z,934.31
2023-03-31T04:28:39.262Z,934.29
2023-03-31T04:29:39.278Z,934.31
2023-03-31T04:30:39.295Z,934.30
2023-03-31T04:31:39.371Z,934.28
2023-03-31T04:32:39.356Z,934.28
2023-03-31T04:33:39.359Z,934.24
2023-03-31T04:34:39.361Z,934.24
2023-03-31T04:35:39.395Z,934.25
2023-03-31T04:36:39.492Z,934.25
2023-03-31T04:37:39.431Z,934.24
2023-03-31T04:38:39.432Z,934.20
2023-03-31T04:39:39.448Z,934.18
2023-03-31T04:40:39.460Z,934.17
2023-03-31T04:41:39.482Z,934.13
2023-03-31T04:42:39.501Z,934.09
2023-03-31T04:43:39.506Z,934.07
2023-03-31T04:44:39.521Z,934.02
2023-03-31T04:45:39.834Z,934.03
2023-03-31T04:46:39.570Z,934.00
2023-03-31T04:47:39.632Z,933.97
2023-03-31T04:48:39.584Z,934.01
2023-03-31T04:49:39.606Z,933.96
2023-03-31T04:50:39.636Z,933.94
2023-03-31T04:51:39.638Z,933.91
2023-03-31T04:52:39.658Z,933.93
2023-03-31T04:53:39.675Z,933.95
2023-03-31T04:54:39.708Z,933.94
2023-03-31T04:55:39.706Z,933.94
2023-03-31T04:56:39.721Z,933.95
2023-03-31T04:57:39.739Z,933.93
2023-03-31T04:58:39.746Z,933.93
2023-03-31T04:59:39.771Z,933.93
2023-03-31T05:00:39.780Z,933.94
2023-03-31T05:01:39.814Z,933.95
2023-03-31T05:02:39.924Z,933.96
2023-03-31T05:03:39.885Z,933.93
2023-03-31T05:04:39.855Z,933.90
2023-03-31T05:05:39.872Z,933.93
2023-03-31T05:06:39.885Z,933.93
2023-03-31T05:07:39.909Z,933.93
2023-03-31T05:08:39.920Z,933.90
2023-03-31T05:09:39.932Z,933.90
2023-03-31T05:10:39.952Z,933.92
2023-03-31T05:11:39.975Z,933.88
2023-03-31T05:12:40.005Z,933.86
2023-03-31T05:13:40.010Z,933.86
2023-03-31T05:14:40.015Z,933.83
2023-03-31T05:15:40.036Z,933.80
2023-03-31T05:16:40.079Z,933.76
2023-03-31T05:17:40.105Z,933.76
2023-03-31T05:18:40.084Z,933.71
2023-03-31T05:19:40.128Z,933.68
2023-03-31T05:20:40.113Z,933.67
2023-03-31T05:21:40.186Z,933.68
2023-03-31T05:22:42.484Z,933.64
2023-03-31T05:23:40.165Z,933.64
2023-03-31T05:24:40.187Z,933.62
2023-03-31T05:25:40.197Z,933.64
2023-03-31T05:26:40.220Z,933.60
2023-03-31T05:27:40.230Z,933.61
2023-03-31T05:28:40.244Z,933.57
2023-03-31T05:29:40.274Z,933.56
2023-03-31T05:30:40.285Z,933.55
2023-03-31T05:31:40.355Z,933.53
2023-03-31T05:32:40.321Z,933.49
2023-03-31T05:33:40.481Z,933.46
2023-03-31T05:34:40.344Z,933.48
2023-03-31T05:35:40.441Z,933.42
2023-03-31T05:36:40.391Z,933.39
2023-03-31T05:37:40.395Z,933.36
2023-03-31T05:38:40.415Z,933.36
2023-03-31T05:39:40.434Z,933.34
2023-03-31T05:40:40.438Z,933.35
2023-03-31T05:41:40.472Z,933.34
2023-03-31T05:42:40.478Z,933.33
2023-03-31T05:43:40.493Z,933.33
2023-03-31T05:44:40.508Z,933.33
2023-03-31T05:45:40.521Z,933.31
2023-03-31T05:46:40.701Z,933.26
2023-03-31T05:47:40.662Z,933.30
2023-03-31T05:48:40.565Z,933.25
2023-03-31T05:49:40.592Z,933.29
2023-03-31T05:50:40.614Z,933.25
2023-03-31T05:51:40.642Z,933.24
2023-03-31T05:52:40.640Z,933.23
2023-03-31T05:53:40.655Z,933.21
2023-03-31T05:54:40.670Z,933.26
2023-03-31T05:55:40.688Z,933.26
2023-03-31T05:56:40.705Z,933.26
2023-03-31T05:57:40.722Z,933.23
2023-03-31T05:58:40.730Z,933.27
2023-03-31T05:59:40.761Z,933.28
2023-03-31T06:00:40.761Z,933.26
2023-03-31T06:01:40.852Z,933.22
2023-03-31T06:02:40.914Z,933.25
2023-03-31T06:03:40.916Z,933.24
2023-03-31T06:04:40.981Z,933.24
2023-03-31T06:05:40.844Z,933.20
2023-03-31T06:06:40.872Z,933.23
2023-03-31T06:07:40.900Z,933.23
2023-03-31T06:08:40.890Z,933.21
2023-03-31T06:09:40.925Z,933.25
2023-03-31T06:10:40.923Z,933.26
2023-03-31T06:11:40.946Z,933.29
2023-03-31T06:12:40.986Z,933.26
2023-03-31T06:13:40.982Z,933.25
2023-03-31T06:14:41.086Z,933.21
2023-03-31T06:15:41.041Z,933.20
2023-03-31T06:16:41.025Z,933.17
2023-03-31T06:17:41.088Z,933.18
2023-03-31T06:18:41.065Z,933.17
2023-03-31T06:19:41.076Z,933.19
2023-03-31T06:20:41.182Z,933.17
2023-03-31T06:21:41.109Z,933.15
2023-03-31T06:22:41.116Z,933.17
2023-03-31T06:23:41.183Z,933.13
2023-03-31T06:24:41.171Z,933.13
2023-03-31T06:25:50.479Z,933.11
2023-03-31T06:26:41.281Z,933.13
2023-03-31T06:27:41.204Z,933.13
2023-03-31T06:28:41.214Z,933.11
2023-03-31T06:29:41.238Z,933.12
2023-03-31T06:30:41.259Z,933.12
2023-03-31T06:31:41.342Z,933.09
2023-03-31T06:32:41.315Z,933.12
2023-03-31T06:33:41.303Z,933.11
2023-03-31T06:34:41.325Z,933.13
2023-03-31T06:35:41.368Z,933.14
2023-03-31T06:36:41.340Z,933.10
2023-03-31T06:37:41.355Z,933.11
2023-03-31T06:38:41.386Z,933.08
2023-03-31T06:39:41.424Z,933.08
2023-03-31T06:40:41.412Z,933.06
2023-03-31T06:41:41.433Z,933.07
2023-03-31T06:42:41.436Z,933.02
2023-03-31T06:43:41.458Z,933.02
2023-03-31T06:44:41.485Z,933.00
2023-03-31T06:45:41.522Z,932.99
2023-03-31T06:46:41.628Z,932.98
2023-03-31T06:47:41.633Z,932.96
2023-03-31T06:48:41.578Z,933.00
2023-03-31T06:49:41.555Z,933.00
2023-03-31T06:50:41.673Z,933.04
2023-03-31T06:51:41.581Z,933.04
2023-03-31T06:52:41.606Z,933.04
2023-03-31T06:53:41.612Z,933.05
2023-03-31T06:54:41.629Z,933.04
2023-03-31T06:55:41.703Z,933.03
2023-03-31T06:56:41.760Z,933.01
2023-03-31T06:57:41.683Z,933.02
2023-03-31T06:58:41.701Z,932.97
2023-03-31T06:59:41.716Z,933.00
2023-03-31T07:00:41.724Z,932.98
2023-03-31T07:01:41.790Z,932.97
2023-03-31T07:02:41.800Z,932.95
2023-03-31T07:03:41.801Z,932.93
2023-03-31T07:04:41.788Z,932.93
2023-03-31T07:05:41.813Z,932.90
2023-03-31T07:06:41.827Z,932.83
2023-03-31T07:07:42.703Z,932.88
2023-03-31T07:08:41.851Z,932.82
2023-03-31T07:09:41.868Z,932.84
2023-03-31T07:10:41.891Z,932.90
2023-03-31T07:11:41.935Z,932.84
2023-03-31T07:12:41.915Z,932.83
2023-03-31T07:13:41.932Z,932.85
2023-03-31T07:14:41.957Z,932.88
2023-03-31T07:15:41.972Z,932.91
2023-03-31T07:16:42.029Z,932.94
2023-03-31T07:17:42.158Z,932.96
2023-03-31T07:18:42.073Z,933.00
2023-03-31T07:19:42.031Z,933.02
2023-03-31T07:20:42.048Z,933.05
2023-03-31T07:21:42.069Z,933.08
2023-03-31T07:22:42.074Z,933.05
2023-03-31T07:23:42.091Z,933.07
2023-03-31T07:24:42.107Z,933.06
2023-03-31T07:25:42.128Z,933.00
2023-03-31T07:26:42.153Z,933.01
2023-03-31T07:27:42.175Z,933.01
2023-03-31T07:28:42.181Z,932.97
2023-03-31T07:29:42.196Z,932.99
2023-03-31T07:30:42.231Z,932.99
2023-03-31T07:31:42.255Z,932.97
2023-03-31T07:32:42.282Z,932.95
2023-03-31T07:33:42.267Z,932.96
2023-03-31T07:34:42.268Z,932.99
2023-03-31T07:35:42.332Z,932.99
2023-03-31T07:36:42.358Z,933.01
2023-03-31T07:37:42.313Z,933.05
2023-03-31T07:38:42.344Z,933.04
2023-03-31T07:39:42.354Z,933.10
2023-03-31T07:40:42.369Z,933.06
2023-03-31T07:41:42.379Z,933.08
2023-03-31T07:42:42.394Z,933.11
2023-03-31T07:43:42.452Z,933.10
2023-03-31T07:44:42.433Z,933.10
2023-03-31T07:45:42.461Z,933.13
2023-03-31T07:46:42.533Z,933.10
2023-03-31T07:47:42.490Z,933.15
2023-03-31T07:48:42.511Z,933.12
2023-03-31T07:49:42.511Z,933.15
2023-03-31T07:50:42.539Z,933.16
2023-03-31T07:51:42.549Z,933.18
2023-03-31T07:52:44.783Z,933.16
2023-03-31T07:53:42.586Z,933.17
2023-03-31T07:54:42.588Z,933.11
2023-03-31T07:55:42.602Z,933.10
2023-03-31T07:56:42.753Z,933.07
2023-03-31T07:57:42.635Z,933.06
2023-03-31T07:58:42.657Z,933.08
2023-03-31T07:59:42.694Z,933.04
2023-03-31T08:00:42.688Z,933.04
2023-03-31T08:01:42.758Z,933.08
2023-03-31T08:02:42.913Z,933.09
2023-03-31T08:03:42.769Z,933.12
2023-03-31T08:04:42.752Z,933.17
2023-03-31T08:05:42.770Z,933.12
2023-03-31T08:06:42.796Z,933.14
2023-03-31T08:07:42.803Z,933.15
2023-03-31T08:08:42.810Z,933.11
2023-03-31T08:09:42.832Z,933.14
2023-03-31T08:10:42.863Z,933.08
2023-03-31T08:11:43.436Z,933.08
2023-03-31T08:12:42.877Z,933.12
2023-03-31T08:13:42.894Z,933.10
2023-03-31T08:14:42.913Z,933.10
2023-03-31T08:15:43.013Z,933.11
2023-03-31T08:16:43.027Z,933.13
2023-03-31T08:17:43.038Z,933.14
2023-03-31T08:18:42.991Z,933.19
2023-03-31T08:19:42.982Z,933.24
2023-03-31T08:20:43.000Z,933.22
2023-03-31T08:21:43.016Z,933.20
2023-03-31T08:22:43.032Z,933.17
2023-03-31T08:23:43.160Z,933.19
2023-03-31T08:24:43.082Z,933.20
2023-03-31T08:25:43.083Z,933.21
2023-03-31T08:26:43.107Z,933.20
2023-03-31T08:27:43.136Z,933.24
2023-03-31T08:28:43.127Z,933.23
2023-03-31T08:29:43.148Z,933.25
2023-03-31T08:30:43.184Z,933.29
2023-03-31T08:31:43.266Z,933.32
2023-03-31T08:32:43.275Z,933.34
2023-03-31T08:33:43.212Z,933.39
2023-03-31T08:34:43.225Z,933.42
2023-03-31T08:35:43.278Z,933.42
2023-03-31T08:36:43.271Z,933.42
2023-03-31T08:37:43.280Z,933.40
2023-03-31T08:38:43.293Z,933.42
2023-03-31T08:39:43.318Z,933.45
2023-03-31T08:40:43.317Z,933.46
2023-03-31T08:41:43.339Z,933.45
2023-03-31T08:42:43.350Z,933.45
2023-03-31T08:43:43.370Z,933.42
2023-03-31T08:44:43.381Z,933.43
2023-03-31T08:45:43.425Z,933.42
2023-03-31T08:46:43.417Z,933.42
2023-03-31T08:47:43.515Z,933.39
2023-03-31T08:48:43.445Z,933.43
2023-03-31T08:49:43.462Z,933.42
2023-03-31T08:50:43.505Z,933.46
2023-03-31T08:51:43.498Z,933.51
2023-03-31T08:52:43.511Z,933.50
2023-03-31T08:53:43.646Z,933.52
2023-03-31T08:54:43.545Z,933.56
2023-03-31T08:55:43.558Z,933.53
2023-03-31T08:56:43.638Z,933.50
2023-03-31T08:57:45.346Z,933.52
2023-03-31T08:58:43.604Z,933.48
2023-03-31T08:59:43.631Z,933.50
2023-03-31T09:00:43.670Z,933.52
2023-03-31T09:01:52.768Z,933.55
2023-03-31T09:02:43.789Z,933.55
2023-03-31T09:03:43.836Z,933.59
2023-03-31T09:04:43.708Z,933.57
2023-03-31T09:05:57.258Z,933.59
2023-03-31T09:06:43.738Z,933.59
2023-03-31T09:07:43.754Z,933.64
2023-03-31T09:08:43.764Z,933.61
2023-03-31T09:09:43.790Z,933.68
2023-03-31T09:10:43.796Z,933.66
2023-03-31T09:11:43.814Z,933.70
2023-03-31T09:12:43.834Z,933.74
2023-03-31T09:13:43.844Z,933.71
2023-03-31T09:14:43.859Z,933.75
2023-03-31T09:15:43.886Z,933.75
2023-03-31T09:16:43.974Z,933.76
2023-03-31T09:17:43.966Z,933.78
2023-03-31T09:18:43.930Z,933.77
2023-03-31T09:19:43.974Z,933.75
2023-03-31T09:20:43.955Z,933.76
2023-03-31T09:21:43.977Z,933.74
2023-03-31T09:22:43.992Z,933.74
2023-03-31T09:23:44.040Z,933.78
2023-03-31T09:24:44.025Z,933.79
2023-03-31T09:25:44.036Z,933.78
2023-03-31T09:26:44.051Z,933.78
2023-03-31T09:27:44.087Z,933.80
2023-03-31T09:28:44.081Z,933.80
2023-03-31T09:29:44.097Z,933.75
2023-03-31T09:30:44.129Z,933.79
2023-03-31T09:31:44.148Z,933.74
2023-03-31T09:32:44.160Z,933.73
2023-03-31T09:33:44.168Z,933.75
2023-03-31T09:34:44.179Z,933.78
2023-03-31T09:35:46.237Z,933.76
2023-03-31T09:36:44.210Z,933.79
2023-03-31T09:37:44.226Z,933.79
2023-03-31T09:38:44.243Z,933.76
2023-03-31T09:39:44.266Z,933.76
2023-03-31T09:40:44.290Z,933.78
2023-03-31T09:41:44.308Z,933.83
2023-03-31T09:42:44.305Z,933.86
2023-03-31T09:43:44.329Z,933.85
2023-03-31T09:44:44.346Z,933.89
2023-03-31T09:45:52.074Z,933.89
2023-03-31T09:46:44.447Z,933.88
2023-03-31T09:47:44.444Z,933.91
2023-03-31T09:48:44.419Z,933.88
2023-03-31T09:49:54.028Z,933.91
2023-03-31T09:50:44.432Z,933.90
2023-03-31T09:51:44.468Z,933.88
2023-03-31T09:52:44.473Z,933.91
2023-03-31T09:53:44.479Z,933.93
2023-03-31T09:54:44.509Z,933.96
2023-03-31T09:55:44.555Z,933.97
2023-03-31T09:56:44.574Z,934.01
2023-03-31T09:57:44.551Z,934.01
2023-03-31T09:58:44.561Z,934.04
2023-03-31T09:59:44.576Z,934.05
2023-03-31T10:00:44.603Z,934.08
2023-03-31T10:01:44.682Z,934.06
2023-03-31T10:02:44.636Z,934.05
2023-03-31T10:03:44.700Z,934.04
2023-03-31T10:04:44.654Z,934.02
2023-03-31T10:05:44.672Z,934.06
2023-03-31T10:06:44.692Z,934.03
2023-03-31T10:07:44.723Z,934.05
2023-03-31T10:08:44.720Z,934.02
2023-03-31T10:09:44.742Z,934.01
2023-03-31T10:10:44.761Z,934.01
2023-03-31T10:11:44.765Z,934.06
2023-03-31T10:12:44.823Z,934.08
2023-03-31T10:13:44.808Z,934.09
2023-03-31T10:14:44.818Z,934.09
2023-03-31T10:15:44.885Z,934.12
2023-03-31T10:16:44.847Z,934.13
2023-03-31T10:17:54.732Z,934.14
2023-03-31T10:18:44.880Z,934.14
2023-03-31T10:19:44.892Z,934.14
2023-03-31T10:20:44.915Z,934.11
2023-03-31T10:21:44.925Z,934.12
2023-03-31T10:22:44.956Z,934.13
2023-03-31T10:23:44.987Z,934.13
2023-03-31T10:24:44.975Z,934.14
2023-03-31T10:25:44.995Z,934.16
2023-03-31T10:26:45.008Z,934.17
2023-03-31T10:27:45.029Z,934.16
2023-03-31T10:28:45.038Z,934.21
2023-03-31T10:29:45.050Z,934.20
2023-03-31T10:30:45.063Z,934.19
2023-03-31T10:31:45.114Z,934.23
2023-03-31T10:32:46.739Z,934.22
2023-03-31T10:33:45.238Z,934.22
2023-03-31T10:34:45.137Z,934.26
2023-03-31T10:35:45.164Z,934.26
2023-03-31T10:36:45.158Z,934.27
2023-03-31T10:37:45.182Z,934.30
2023-03-31T10:38:45.301Z,934.28
2023-03-31T10:39:45.223Z,934.29
2023-03-31T10:40:45.243Z,934.31
2023-03-31T10:41:45.240Z,934.31
2023-03-31T10:42:45.250Z,934.33
2023-03-31T10:43:45.274Z,934.36
2023-03-31T10:44:45.280Z,934.35
2023-03-31T10:45:45.307Z,934.35
2023-03-31T10:46:45.344Z,934.40
2023-03-31T10:47:45.380Z,934.38
2023-03-31T10:48:45.346Z,934.42
2023-03-31T10:49:45.370Z,934.42
2023-03-31T10:50:45.388Z,934.43
2023-03-31T10:51:45.390Z,934.50
2023-03-31T10:52:45.403Z,934.46
2023-03-31T10:53:45.426Z,934.45
2023-03-31T10:54:45.436Z,934.51
2023-03-31T10:55:45.481Z,934.49
2023-03-31T10:56:47.861Z,934.49
2023-03-31T10:57:45.482Z,934.53
2023-03-31T10:58:58.123Z,934.51
2023-03-31T10:59:45.523Z,934.51
2023-03-31T11:00:45.531Z,934.50
2023-03-31T11:01:45.743Z,934.49
2023-03-31T11:02:45.645Z,934.53
2023-03-31T11:03:45.663Z,934.45
2023-03-31T11:04:45.603Z,934.51
2023-03-31T11:05:45.608Z,934.50
2023-03-31T11:06:45.631Z,934.54
2023-03-31T11:07:45.662Z,934.51
2023-03-31T11:08:45.667Z,934.56
2023-03-31T11:09:45.680Z,934.54
2023-03-31T11:10:45.697Z,934.57
2023-03-31T11:11:45.722Z,934.51
2023-03-31T11:12:45.727Z,934.54
2023-03-31T11:13:45.736Z,934.57
2023-03-31T11:14:45.757Z,934.56
2023-03-31T11:15:45.800Z,934.57
2023-03-31T11:16:45.803Z,934.56
2023-03-31T11:17:45.854Z,934.61
2023-03-31T11:18:45.845Z,934.63
2023-03-31T11:19:45.840Z,934.62
2023-03-31T11:20:45.844Z,934.62
2023-03-31T11:21:45.867Z,934.67
2023-03-31T11:22:45.884Z,934.68
2023-03-31T11:23:45.903Z,934.67
2023-03-31T11:24:45.914Z,934.69
2023-03-31T11:25:45.929Z,934.70
2023-03-31T11:26:45.947Z,934.77
2023-03-31T11:27:45.985Z,934.73
2023-03-31T11:28:45.978Z,934.78
2023-03-31T11:29:45.997Z,934.78
2023-03-31T11:30:46.022Z,934.80
2023-03-31T11:31:46.082Z,934.79
2023-03-31T11:32:46.058Z,934.79
2023-03-31T11:33:46.067Z,934.78
2023-03-31T11:34:46.063Z,934.74
2023-03-31T11:35:46.138Z,934.76
2023-03-31T11:36:46.101Z,934.76
2023-03-31T11:37:46.120Z,934.74
2023-03-31T11:38:46.129Z,934.80
2023-03-31T11:39:46.150Z,934.81
2023-03-31T11:40:46.195Z,934.80
2023-03-31T11:41:46.177Z,934.84
2023-03-31T11:42:46.196Z,934.80
2023-03-31T11:43:46.251Z,934.81
2023-03-31T11:44:46.232Z,934.84
2023-03-31T11:45:46.273Z,934.79
2023-03-31T11:46:46.258Z,934.80
2023-03-31T11:47:46.325Z,934.79
2023-03-31T11:48:46.296Z,934.82
2023-03-31T11:49:46.304Z,934.84
2023-03-31T11:50:46.318Z,934.85
2023-03-31T11:51:46.349Z,934.86
2023-03-31T11:52:46.351Z,934.88
2023-03-31T11:53:46.369Z,934.90
2023-03-31T11:54:46.420Z,934.88
2023-03-31T11:55:46.405Z,934.91
2023-03-31T11:56:46.518Z,934.93
2023-03-31T11:57:46.567Z,934.97
2023-03-31T11:58:46.562Z,934.92
2023-03-31T11:59:46.669Z,934.96
2023-03-31T12:00:46.586Z,934.96
2023-03-31T12:01:46.539Z,935.01
2023-03-31T12:02:46.595Z,935.01
2023-03-31T12:03:46.575Z,934.97
2023-03-31T12:04:46.569Z,934.99
2023-03-31T12:05:46.590Z,934.97
2023-03-31T12:06:46.600Z,935.02
2023-03-31T12:07:46.595Z,934.99
2023-03-31T12:08:46.616Z,935.00
2023-03-31T12:09:46.632Z,935.01
2023-03-31T12:10:46.634Z,935.02
2023-03-31T12:11:46.648Z,935.03
2023-03-31T12:12:46.685Z,935.04
2023-03-31T12:13:46.695Z,935.05
2023-03-31T12:14:46.708Z,935.04
2023-03-31T12:15:46.800Z,935.05
2023-03-31T12:16:46.726Z,935.04
2023-03-31T12:17:46.802Z,935.11
2023-03-31T12:18:46.762Z,935.08
2023-03-31T12:19:46.786Z,935.14
2023-03-31T12:20:46.791Z,935.11
2023-03-31T12:21:46.805Z,935.11
2023-03-31T12:22:46.829Z,935.09
2023-03-31T12:23:46.837Z,935.11
2023-03-31T12:24:46.853Z,935.10
2023-03-31T12:25:46.873Z,935.09
2023-03-31T12:26:46.886Z,935.10
2023-03-31T12:27:46.915Z,935.11
2023-03-31T12:28:46.925Z,935.10